createdAt,value
2018-12-14T00:00:46.646Z,102119.66
2018-12-14T00:03:14.086Z,102120.50
2018-12-14T00:05:41.508Z,102126.94
2018-12-14T00:08:08.946Z,102134.64
2018-12-14T00:10:36.418Z,102127.36
2018-12-14T00:13:03.873Z,102132.95
2018-12-14T00:15:31.327Z,102130.00
2018-12-14T00:17:58.742Z,102139.89
2018-12-14T00:20:26.199Z,102131.29
2018-12-14T00:22:53.636Z,102134.30
2018-12-14T00:25:21.082Z,102134.77
2018-12-14T00:27:48.518Z,102135.21
2018-12-14T00:30:15.975Z,102138.59
2018-12-14T00:32:43.501Z,102139.05
2018-12-14T00:35:10.943Z,102146.39
2018-12-14T00:37:38.367Z,102141.22
2018-12-14T00:40:05.871Z,102152.35
2018-12-14T00:42:33.314Z,102151.48
2018-12-14T00:45:00.723Z,102140.31
2018-12-14T00:47:28.228Z,102140.73
2018-12-14T00:49:55.640Z,102144.17
2018-12-14T00:52:23.080Z,102145.04
2018-12-14T00:54:50.642Z,102142.47
2018-12-14T00:57:18.139Z,102146.74
2018-12-14T00:59:45.667Z,102143.69
2018-12-14T01:02:18.781Z,102143.59
2018-12-14T01:04:46.249Z,102147.88
2018-12-14T01:07:13.698Z,102145.27
2018-12-14T01:09:41.123Z,102143.59
2018-12-14T01:12:08.537Z,102147.06
2018-12-14T01:14:35.989Z,102147.08
2018-12-14T01:17:03.475Z,102148.36
2018-12-14T01:19:30.885Z,102148.37
2018-12-14T01:21:58.322Z,102158.27
2018-12-14T01:24:25.767Z,102155.25
2018-12-14T01:26:53.194Z,102154.41
2018-12-14T01:29:20.694Z,102161.78
2018-12-14T01:31:48.093Z,102158.33
2018-12-14T01:34:15.664Z,102157.92
2018-12-14T01:36:43.086Z,102155.33
2018-12-14T01:39:10.497Z,102157.02
2018-12-14T01:41:37.930Z,102158.79
2018-12-14T01:44:05.393Z,102159.67
2018-12-14T01:46:32.811Z,102152.78
2018-12-14T01:49:00.246Z,102153.20
2018-12-14T01:51:27.701Z,102149.31
2018-12-14T01:53:55.145Z,102146.77
2018-12-14T01:56:22.585Z,102149.77
2018-12-14T01:58:49.991Z,102141.60
2018-12-14T02:01:17.429Z,102139.88
2018-12-14T02:03:44.889Z,102141.14
2018-12-14T02:06:12.307Z,102150.20
2018-12-14T02:08:39.718Z,102129.13
2018-12-14T02:11:07.143Z,102140.73
2018-12-14T02:13:34.575Z,102130.81
2018-12-14T02:16:02.049Z,102128.25
2018-12-14T02:18:29.621Z,102135.92
2018-12-14T02:20:57.043Z,102129.07
2018-12-14T02:23:24.487Z,102128.64
2018-12-14T02:25:51.913Z,102132.13
2018-12-14T02:28:19.353Z,102135.08
2018-12-14T02:30:46.851Z,102126.46
2018-12-14T02:33:14.415Z,102126.42
2018-12-14T02:35:41.867Z,102126.39
2018-12-14T02:38:09.296Z,102128.14
2018-12-14T02:40:36.754Z,102127.29
2018-12-14T02:43:04.206Z,102121.25
2018-12-14T02:45:31.652Z,102122.19
2018-12-14T02:47:59.056Z,102128.23
2018-12-14T02:50:26.512Z,102128.25
2018-12-14T02:52:53.931Z,102124.82
2018-12-14T02:55:21.402Z,102120.48
2018-12-14T02:57:48.928Z,102120.48
2018-12-14T03:00:16.457Z,102114.48
2018-12-14T03:02:43.887Z,102108.88
2018-12-14T03:05:11.345Z,102115.77
2018-12-14T03:07:38.800Z,102116.25
2018-12-14T03:10:06.598Z,102118.81
2018-12-14T03:12:34.098Z,102123.06
2018-12-14T03:15:01.559Z,102122.21
2018-12-14T03:17:29.044Z,102129.09
2018-12-14T03:19:56.633Z,102122.19
2018-12-14T03:22:24.595Z,102122.23
2018-12-14T03:24:52.044Z,102123.48
2018-12-14T03:27:19.501Z,102129.94
2018-12-14T03:29:46.998Z,102136.81
2018-12-14T03:32:14.465Z,102134.64
2018-12-14T03:34:41.903Z,102129.51
2018-12-14T03:37:09.323Z,102131.23
2018-12-14T03:39:36.759Z,102143.30
2018-12-14T03:42:04.211Z,102139.42
2018-12-14T03:44:31.668Z,102137.72
2018-12-14T03:46:59.386Z,102135.13
2018-12-14T03:49:26.846Z,102137.72
2018-12-14T03:51:54.268Z,102137.31
2018-12-14T03:54:21.741Z,102136.44
2018-12-14T03:56:49.176Z,102135.55
2018-12-14T03:59:16.612Z,102134.70
2018-12-14T04:01:44.089Z,102136.00
2018-12-14T04:04:11.547Z,102134.25
2018-12-14T04:06:38.996Z,102138.13
2018-12-14T04:09:06.480Z,102137.70
2018-12-14T04:11:34.028Z,102131.67
2018-12-14T04:14:01.487Z,102133.83
2018-12-14T04:16:28.938Z,102134.69
2018-12-14T04:18:56.448Z,102116.20
2018-12-14T04:21:23.890Z,102129.12
2018-12-14T04:23:51.436Z,102118.36
2018-12-14T04:26:18.859Z,102121.34
2018-12-14T04:28:46.282Z,102112.67
2018-12-14T04:31:13.706Z,102095.44
2018-12-14T04:33:41.620Z,102101.48
2018-12-14T04:36:09.064Z,102104.06
2018-12-14T04:38:36.512Z,102108.67
2018-12-14T04:41:03.952Z,102123.69
2018-12-14T04:43:31.390Z,102120.27
2018-12-14T04:45:58.819Z,102126.30
2018-12-14T04:48:26.265Z,102129.77
2018-12-14T04:50:53.702Z,102125.93
2018-12-14T04:53:21.142Z,102130.68
2018-12-14T04:55:48.592Z,102125.97
2018-12-14T04:58:16.032Z,102127.71
2018-12-14T05:00:43.457Z,102123.45
2018-12-14T05:03:10.873Z,102125.17
2018-12-14T05:05:38.420Z,102128.64
2018-12-14T05:08:05.905Z,102126.48
2018-12-14T05:10:33.372Z,102120.03
2018-12-14T05:13:00.797Z,102126.03
2018-12-14T05:15:28.236Z,102114.85
2018-12-14T05:17:55.674Z,102114.45
2018-12-14T05:20:23.111Z,102116.18
2018-12-14T05:22:50.555Z,102123.02
2018-12-14T05:25:17.989Z,102117.87
2018-12-14T05:27:45.476Z,102123.48
2018-12-14T05:30:13.264Z,102126.02
2018-12-14T05:32:40.697Z,102123.00
2018-12-14T05:35:08.182Z,102123.84
2018-12-14T05:37:35.635Z,102120.37
2018-12-14T05:40:03.090Z,102118.23
2018-12-14T05:42:30.569Z,102119.52
2018-12-14T05:44:58.035Z,102121.66
2018-12-14T05:47:25.466Z,102117.41
2018-12-14T05:49:52.894Z,102131.16
2018-12-14T05:52:20.371Z,102128.17
2018-12-14T05:54:47.821Z,102133.31
2018-12-14T05:57:15.283Z,102125.19
2018-12-14T05:59:42.699Z,102129.87
2018-12-14T06:02:10.181Z,102126.81
2018-12-14T06:04:37.649Z,102125.55
2018-12-14T06:07:05.119Z,102128.13
2018-12-14T06:09:32.555Z,102126.81
2018-12-14T06:12:00.073Z,102124.69
2018-12-14T06:14:27.507Z,102127.27
2018-12-14T06:16:55.002Z,102122.96
2018-12-14T06:19:22.423Z,102131.56
2018-12-14T06:21:49.843Z,102128.97
2018-12-14T06:24:17.305Z,102131.55
2018-12-14T06:26:44.782Z,102126.80
2018-12-14T06:29:12.225Z,102123.31
2018-12-14T06:31:39.710Z,102121.14
2018-12-14T06:34:07.132Z,102122.86
2018-12-14T06:36:35.390Z,102131.50
2018-12-14T06:39:03.639Z,102131.08
2018-12-14T06:41:31.106Z,102131.52
2018-12-14T06:43:58.543Z,102131.95
2018-12-14T06:46:25.975Z,102128.08
2018-12-14T06:48:53.420Z,102139.28
2018-12-14T06:51:20.864Z,102137.62
2018-12-14T06:53:48.283Z,102146.56
2018-12-14T06:56:15.700Z,102144.73
2018-12-14T06:58:43.167Z,102159.77
2018-12-14T07:01:10.588Z,102159.75
2018-12-14T07:03:38.035Z,102171.42
2018-12-14T07:06:05.449Z,102172.75
2018-12-14T07:08:32.904Z,102174.50
2018-12-14T07:11:00.388Z,102174.94
2018-12-14T07:13:27.810Z,102178.81
2018-12-14T07:15:55.227Z,102190.86
2018-12-14T07:18:22.655Z,102193.03
2018-12-14T07:20:50.307Z,102184.80
2018-12-14T07:23:17.724Z,102182.23
2018-12-14T07:25:45.155Z,102188.69
2018-12-14T07:28:12.580Z,102187.34
2018-12-14T07:30:40.000Z,102190.80
2018-12-14T07:33:07.428Z,102198.12
2018-12-14T07:35:34.867Z,102198.54
2018-12-14T07:38:02.329Z,102196.78
2018-12-14T07:40:29.776Z,102196.77
2018-12-14T07:42:57.204Z,102195.42
2018-12-14T07:45:24.649Z,102195.41
2018-12-14T07:47:52.188Z,102196.73
2018-12-14T07:50:19.631Z,102198.89
2018-12-14T07:52:47.047Z,102198.11
2018-12-14T07:55:14.503Z,102203.69
2018-12-14T07:57:41.924Z,102206.72
2018-12-14T08:00:09.403Z,102206.31
2018-12-14T08:02:36.878Z,102214.47
2018-12-14T08:05:05.070Z,102215.34
2018-12-14T08:07:32.500Z,102220.49
2018-12-14T08:09:59.921Z,102216.65
2018-12-14T08:12:28.356Z,102220.09
2018-12-14T08:14:55.778Z,102221.89
2018-12-14T08:17:23.190Z,102218.84
2018-12-14T08:19:50.602Z,102221.86
2018-12-14T08:22:18.056Z,102223.11
2018-12-14T08:24:45.507Z,102221.42
2018-12-14T08:27:13.029Z,102223.61
2018-12-14T08:29:40.425Z,102233.89
2018-12-14T08:32:07.903Z,102229.16
2018-12-14T08:34:35.385Z,102232.59
2018-12-14T08:37:02.840Z,102233.87
2018-12-14T08:39:30.277Z,102232.20
2018-12-14T08:41:57.735Z,102233.92
2018-12-14T08:44:25.154Z,102245.55
2018-12-14T08:46:52.600Z,102251.97
2018-12-14T08:49:20.051Z,102256.70
2018-12-14T08:51:47.459Z,102258.41
2018-12-14T08:54:14.904Z,102259.69
2018-12-14T08:56:42.356Z,102258.83
2018-12-14T08:59:09.787Z,102262.67
2018-12-14T09:01:37.213Z,102255.33
2018-12-14T09:04:04.665Z,102260.94
2018-12-14T09:06:32.117Z,102256.67
2018-12-14T09:08:59.543Z,102270.04
2018-12-14T09:11:26.959Z,102283.82
2018-12-14T09:13:54.386Z,102290.70
2018-12-14T09:16:21.844Z,102284.64
2018-12-14T09:18:49.267Z,102287.23
2018-12-14T09:21:16.687Z,102288.55
2018-12-14T09:23:44.142Z,102289.02
2018-12-14T09:26:11.607Z,102283.42
2018-12-14T09:28:39.045Z,102287.73
2018-12-14T09:31:06.471Z,102282.58
2018-12-14T09:33:33.923Z,102290.30
2018-12-14T09:36:01.447Z,102286.88
2018-12-14T09:38:28.864Z,102290.30
2018-12-14T09:40:56.329Z,102291.20
2018-12-14T09:43:23.776Z,102294.63
2018-12-14T09:45:51.200Z,102299.34
2018-12-14T09:48:18.619Z,102296.33
2018-12-14T09:50:46.192Z,102296.73
2018-12-14T09:53:13.641Z,102290.32
2018-12-14T09:55:41.188Z,102293.80
2018-12-14T09:58:08.614Z,102295.50
2018-12-14T10:00:36.100Z,102290.75
2018-12-14T10:03:03.561Z,102295.04
2018-12-14T10:05:30.956Z,102294.63
2018-12-14T10:07:59.098Z,102289.02
2018-12-14T10:10:26.543Z,102290.75
2018-12-14T10:12:53.955Z,102287.28
2018-12-14T10:15:21.373Z,102287.77
2018-12-14T10:17:48.781Z,102288.64
2018-12-14T10:20:16.210Z,102286.08
2018-12-14T10:22:43.652Z,102283.05
2018-12-14T10:25:11.095Z,102282.58
2018-12-14T10:27:38.511Z,102285.61
2018-12-14T10:30:08.270Z,102289.48
2018-12-14T10:32:35.688Z,102289.52
2018-12-14T10:35:03.964Z,102287.33
2018-12-14T10:37:31.368Z,102285.64
2018-12-14T10:39:58.879Z,102289.09
2018-12-14T10:42:26.343Z,102287.80
2018-12-14T10:44:53.784Z,102292.55
2018-12-14T10:47:21.231Z,102287.83
2018-12-14T10:49:48.665Z,102293.34
2018-12-14T10:52:16.117Z,102291.67
2018-12-14T10:54:43.767Z,102287.38
2018-12-14T10:57:16.145Z,102294.21
2018-12-14T10:59:40.839Z,102291.64
2018-12-14T11:02:08.292Z,102298.11
2018-12-14T11:04:35.699Z,102288.54
2018-12-14T11:07:03.126Z,102288.99
2018-12-14T11:09:30.568Z,102285.03
2018-12-14T11:11:58.026Z,102281.63
2018-12-14T11:14:25.466Z,102287.70
2018-12-14T11:16:52.951Z,102288.97
2018-12-14T11:19:20.382Z,102286.41
2018-12-14T11:21:47.811Z,102288.58
2018-12-14T11:24:15.262Z,102282.12
2018-12-14T11:26:42.687Z,102282.45
2018-12-14T11:29:10.103Z,102276.97
2018-12-14T11:31:37.535Z,102279.59
2018-12-14T11:34:04.963Z,102277.87
2018-12-14T11:36:32.392Z,102283.00
2018-12-14T11:38:59.816Z,102279.97
2018-12-14T11:41:27.572Z,102274.83
2018-12-14T11:43:55.026Z,102274.47
2018-12-14T11:46:22.429Z,102274.88
2018-12-14T11:48:49.860Z,102274.87
2018-12-14T11:51:17.292Z,102277.02
2018-12-14T11:53:44.742Z,102273.14
2018-12-14T11:56:12.192Z,102274.00
2018-12-14T11:58:39.622Z,102271.86
2018-12-14T12:01:07.066Z,102270.97
2018-12-14T12:03:34.465Z,102268.84
2018-12-14T12:06:01.897Z,102275.25
2018-12-14T12:08:29.320Z,102269.26
2018-12-14T12:10:56.727Z,102273.55
2018-12-14T12:13:24.176Z,102267.96
2018-12-14T12:15:51.607Z,102274.44
2018-12-14T12:18:19.040Z,102280.03
2018-12-14T12:20:46.482Z,102276.57
2018-12-14T12:23:13.926Z,102280.38
2018-12-14T12:25:41.348Z,102277.84
2018-12-14T12:28:08.792Z,102277.41
2018-12-14T12:30:36.219Z,102270.55
2018-12-14T12:33:03.641Z,102278.77
2018-12-14T12:35:31.088Z,102278.77
2018-12-14T12:37:58.541Z,102273.19
2018-12-14T12:40:25.984Z,102278.36
2018-12-14T12:42:53.426Z,102277.97
2018-12-14T12:45:20.910Z,102274.55
2018-12-14T12:47:48.323Z,102277.15
2018-12-14T12:50:15.735Z,102275.02
2018-12-14T12:52:43.151Z,102282.28
2018-12-14T12:55:10.598Z,102283.12
2018-12-14T12:57:38.012Z,102283.57
2018-12-14T13:00:06.075Z,102275.78
2018-12-14T13:02:33.488Z,102270.98
2018-12-14T13:05:00.924Z,102276.56
2018-12-14T13:07:28.343Z,102282.17
2018-12-14T13:09:55.767Z,102286.50
2018-12-14T13:12:23.715Z,102278.33
2018-12-14T13:14:51.128Z,102280.05
2018-12-14T13:17:18.589Z,102282.27
2018-12-14T13:19:46.016Z,102288.30
2018-12-14T13:22:13.422Z,102286.03
2018-12-14T13:24:40.851Z,102287.72
2018-12-14T13:27:08.303Z,102286.86
2018-12-14T13:29:35.745Z,102290.31
2018-12-14T13:32:03.212Z,102296.36
2018-12-14T13:34:31.570Z,102295.50
2018-12-14T13:36:59.000Z,102293.34
2018-12-14T13:39:26.451Z,102293.34
2018-12-14T13:41:53.967Z,102291.67
2018-12-14T13:44:21.921Z,102283.52
2018-12-14T13:46:50.222Z,102289.53
2018-12-14T13:49:17.897Z,102293.43
2018-12-14T13:51:45.397Z,102288.72
2018-12-14T13:54:12.816Z,102290.38
2018-12-14T13:56:40.243Z,102289.56
2018-12-14T13:59:07.686Z,102287.31
2018-12-14T14:01:35.138Z,102288.92
2018-12-14T14:04:02.571Z,102295.00
2018-12-14T14:06:29.985Z,102294.96
2018-12-14T14:08:57.409Z,102300.57
2018-12-14T14:11:24.864Z,102292.44
2018-12-14T14:13:52.353Z,102292.86
2018-12-14T14:16:19.792Z,102294.17
2018-12-14T14:18:47.232Z,102286.44
2018-12-14T14:21:14.704Z,102292.36
2018-12-14T14:23:42.124Z,102290.22
2018-12-14T14:26:09.558Z,102296.12
2018-12-14T14:28:36.979Z,102305.24
2018-12-14T14:31:04.427Z,102300.94
2018-12-14T14:33:31.936Z,102305.70
2018-12-14T14:35:59.410Z,102305.19
2018-12-14T14:38:26.860Z,102307.30
2018-12-14T14:40:54.289Z,102310.31
2018-12-14T14:43:21.711Z,102310.27
2018-12-14T14:45:49.127Z,102317.67
2018-12-14T14:48:16.677Z,102319.44
2018-12-14T14:50:44.121Z,102318.02
2018-12-14T14:53:11.592Z,102318.89
2018-12-14T14:55:39.007Z,102317.58
2018-12-14T14:58:06.421Z,102315.47
2018-12-14T15:00:33.880Z,102316.38
2018-12-14T15:03:01.398Z,102319.84
2018-12-14T15:05:28.855Z,102321.15
2018-12-14T15:07:56.314Z,102319.34
2018-12-14T15:10:23.727Z,102324.51
2018-12-14T15:12:51.155Z,102315.95
2018-12-14T15:15:18.600Z,102324.17
2018-12-14T15:17:46.019Z,102330.13
2018-12-14T15:20:13.517Z,102336.47
2018-12-14T15:22:40.926Z,102343.80
2018-12-14T15:25:08.352Z,102341.28
2018-12-14T15:27:35.804Z,102337.38
2018-12-14T15:30:03.676Z,102349.52
2018-12-14T15:32:31.225Z,102349.42
2018-12-14T15:34:59.303Z,102345.54
2018-12-14T15:37:27.026Z,102342.95
2018-12-14T15:39:54.476Z,102342.51
2018-12-14T15:42:21.883Z,102349.38
2018-12-14T15:44:49.312Z,102346.86
2018-12-14T15:47:16.774Z,102343.02
2018-12-14T15:49:44.202Z,102343.45
2018-12-14T15:52:11.627Z,102349.34
2018-12-14T15:54:39.053Z,102348.92
2018-12-14T15:57:06.464Z,102352.41
2018-12-14T15:59:33.889Z,102360.08
2018-12-14T16:02:28.173Z,102361.01
2018-12-14T16:04:55.816Z,102363.00
2018-12-14T16:07:23.244Z,102356.19
2018-12-14T16:13:47.734Z,102360.06
2018-12-14T16:16:15.301Z,102354.44
2018-12-14T16:18:42.770Z,102361.34
2018-12-14T16:21:10.272Z,102360.95
2018-12-14T16:23:37.705Z,102357.95
2018-12-14T16:26:05.217Z,102366.15
2018-12-14T16:31:23.098Z,102360.57
2018-12-14T16:39:51.251Z,102363.93
2018-12-14T16:42:18.699Z,102362.66
2018-12-14T16:44:46.056Z,102368.55
2018-12-14T16:47:13.450Z,102362.98
2018-12-14T16:49:40.834Z,102362.19
2018-12-14T16:52:08.240Z,102363.45
2018-12-14T16:54:35.641Z,102363.88
2018-12-14T16:57:03.045Z,102368.59
2018-12-14T16:59:30.425Z,102367.26
2018-12-14T17:01:57.823Z,102367.68
2018-12-14T17:04:25.249Z,102371.98
2018-12-14T17:06:52.697Z,102370.70
2018-12-14T17:09:20.090Z,102372.81
2018-12-14T17:11:47.481Z,102379.30
2018-12-14T17:14:14.867Z,102370.23
2018-12-14T17:16:42.276Z,102378.36
2018-12-14T17:19:09.646Z,102371.14
2018-12-14T17:21:37.031Z,102383.17
2018-12-14T17:24:04.426Z,102382.33
2018-12-14T17:26:31.793Z,102378.47
2018-12-14T17:28:59.174Z,102384.48
2018-12-14T17:31:26.577Z,102379.28
2018-12-14T17:33:53.970Z,102378.38
2018-12-14T17:36:21.346Z,102384.84
2018-12-14T17:38:48.738Z,102383.00
2018-12-14T17:41:16.177Z,102383.09
2018-12-14T17:43:43.565Z,102391.27
2018-12-14T17:46:10.943Z,102385.53
2018-12-14T17:48:38.411Z,102387.25
2018-12-14T17:51:05.796Z,102390.23
2018-12-14T17:53:33.179Z,102391.11
2018-12-14T17:56:00.574Z,102391.99
2018-12-14T17:58:27.950Z,102397.15
2018-12-14T18:00:58.372Z,102395.40
2018-12-14T18:03:24.724Z,102399.20
2018-12-14T18:05:52.093Z,102398.36
2018-12-14T18:08:19.505Z,102400.95
2018-12-14T18:10:46.878Z,102401.38
2018-12-14T18:13:14.261Z,102400.11
2018-12-14T18:15:46.351Z,102409.59
2018-12-14T18:18:11.925Z,102403.13
2018-12-14T18:20:39.345Z,102400.49
2018-12-14T18:23:06.737Z,102398.41
2018-12-14T18:25:34.229Z,102401.77
2018-12-14T18:28:01.610Z,102404.41
2018-12-14T18:30:28.999Z,102403.99
2018-12-14T18:32:56.465Z,102408.23
2018-12-14T18:35:23.894Z,102411.67
2018-12-14T18:37:51.290Z,102413.77
2018-12-14T18:40:18.685Z,102421.12
2018-12-14T18:42:46.160Z,102421.12
2018-12-14T18:45:13.528Z,102430.14
2018-12-14T18:47:40.926Z,102429.75
2018-12-14T18:50:08.313Z,102435.31
2018-12-14T18:52:35.690Z,102431.84
2018-12-14T18:55:03.089Z,102434.84
2018-12-14T18:57:30.534Z,102437.87
2018-12-14T18:59:57.935Z,102433.53
2018-12-14T19:02:25.607Z,102431.84
2018-12-14T19:04:53.010Z,102438.75
2018-12-14T19:07:20.398Z,102437.80
2018-12-14T19:09:48.108Z,102436.41
2018-12-14T19:12:15.666Z,102439.00
2018-12-14T19:14:43.074Z,102442.06
2018-12-14T19:17:10.466Z,102437.86
2018-12-14T19:19:37.877Z,102442.50
2018-12-14T19:22:05.311Z,102444.64
2018-12-14T19:24:32.698Z,102444.17
2018-12-14T19:27:00.069Z,102442.50
2018-12-14T19:29:27.459Z,102445.46
2018-12-14T19:31:54.883Z,102445.92
2018-12-14T19:34:22.482Z,102447.11
2018-12-14T19:36:49.940Z,102455.77
2018-12-14T19:39:17.506Z,102459.61
2018-12-14T19:41:45.200Z,102457.50
2018-12-14T19:44:12.582Z,102457.54
2018-12-14T19:46:39.979Z,102463.94
2018-12-14T19:49:07.361Z,102469.02
2018-12-14T19:51:34.760Z,102463.52
2018-12-14T19:54:02.210Z,102464.34
2018-12-14T19:56:29.613Z,102467.91
2018-12-14T19:58:56.985Z,102467.47
2018-12-14T20:01:24.396Z,102463.30
2018-12-14T20:03:51.769Z,102467.23
2018-12-14T20:06:19.166Z,102467.19
2018-12-14T20:08:46.559Z,102474.89
2018-12-14T20:11:13.953Z,102470.14
2018-12-14T20:13:41.326Z,102476.63
2018-12-14T20:16:12.776Z,102473.55
2018-12-14T20:18:38.097Z,102472.09
2018-12-14T20:22:26.313Z,102468.76
2018-12-14T20:24:53.708Z,102467.81
2018-12-14T20:27:21.141Z,102473.44
2018-12-14T20:29:48.626Z,102472.59
2018-12-14T20:32:16.022Z,102478.70
2018-12-14T20:34:43.398Z,102480.88
2018-12-14T20:37:10.801Z,102484.98
2018-12-14T20:39:38.275Z,102484.97
2018-12-14T20:42:05.757Z,102492.77
2018-12-14T20:44:33.150Z,102491.95
2018-12-14T20:47:00.540Z,102503.45
2018-12-14T20:49:28.030Z,102495.73
2018-12-14T20:51:55.418Z,102498.37
2018-12-14T20:54:22.815Z,102506.56
2018-12-14T20:56:51.706Z,102501.83
2018-12-14T20:59:19.393Z,102504.36
2018-12-14T21:01:46.796Z,102501.67
2018-12-14T21:04:14.266Z,102504.25
2018-12-14T21:06:41.667Z,102504.27
2018-12-14T21:09:09.070Z,102503.08
2018-12-14T21:11:36.520Z,102499.62
2018-12-14T21:14:03.966Z,102494.02
2018-12-14T21:16:31.362Z,102497.46
2018-12-14T21:18:58.781Z,102493.16
2018-12-14T21:21:26.181Z,102498.30
2018-12-14T21:23:53.612Z,102499.70
2018-12-14T21:26:20.985Z,102497.10
2018-12-14T21:28:48.375Z,102501.97
2018-12-14T21:31:15.870Z,102502.65
2018-12-14T21:33:43.253Z,102502.05
2018-12-14T21:36:10.637Z,102506.81
2018-12-14T21:38:38.034Z,102501.86
2018-12-14T21:41:05.421Z,102503.52
2018-12-14T21:43:33.390Z,102506.53
2018-12-14T21:46:00.865Z,102505.59
2018-12-14T21:48:28.261Z,102508.17
2018-12-14T21:50:55.645Z,102505.67
2018-12-14T21:53:23.020Z,102501.78
2018-12-14T21:55:50.425Z,102499.68
2018-12-14T21:58:17.972Z,102501.31
2018-12-14T22:00:45.351Z,102496.87
2018-12-14T22:03:12.734Z,102499.14
2018-12-14T22:05:40.492Z,102489.64
2018-12-14T22:08:07.923Z,102496.16
2018-12-14T22:10:35.406Z,102496.19
2018-12-14T22:13:02.810Z,102496.52
2018-12-14T22:15:30.209Z,102492.94
2018-12-14T22:17:57.703Z,102489.56
2018-12-14T22:20:25.098Z,102495.45
2018-12-14T22:22:52.481Z,102490.33
2018-12-14T22:25:19.882Z,102491.59
2018-12-14T22:27:47.283Z,102494.55
2018-12-14T22:30:14.686Z,102497.22
2018-12-14T22:32:42.086Z,102498.11
2018-12-14T22:35:09.513Z,102496.05
2018-12-14T22:37:36.901Z,102502.94
2018-12-14T22:40:05.082Z,102499.98
2018-12-14T22:42:32.454Z,102496.30
2018-12-14T22:44:59.929Z,102497.22
2018-12-14T22:47:27.330Z,102494.72
2018-12-14T22:49:54.715Z,102495.66
2018-12-14T22:52:22.102Z,102482.73
2018-12-14T22:54:49.494Z,102489.05
2018-12-14T22:57:16.893Z,102493.80
2018-12-14T22:59:44.302Z,102493.01
2018-12-14T23:02:11.693Z,102490.36
2018-12-14T23:04:39.134Z,102485.52
2018-12-14T23:07:06.568Z,102489.44
2018-12-14T23:09:33.954Z,102488.63
2018-12-14T23:12:01.345Z,102483.60
2018-12-14T23:14:29.557Z,102481.82
2018-12-14T23:16:56.938Z,102486.52
2018-12-14T23:19:24.346Z,102483.39
2018-12-14T23:21:51.759Z,102489.38
2018-12-14T23:24:19.169Z,102486.47
2018-12-14T23:26:46.552Z,102484.47
2018-12-14T23:29:13.958Z,102482.76
2018-12-14T23:31:41.425Z,102485.38
2018-12-14T23:34:08.814Z,102487.14
2018-12-14T23:36:36.403Z,102489.02
2018-12-14T23:39:05.192Z,102490.78
2018-12-14T23:41:32.577Z,102487.41
2018-12-14T23:43:59.970Z,102482.24
2018-12-14T23:46:27.358Z,102484.00
2018-12-14T23:48:54.742Z,102480.09
2018-12-14T23:51:22.138Z,102481.82
2018-12-14T23:53:49.525Z,102486.58
2018-12-14T23:56:16.933Z,102479.97
2018-12-14T23:58:44.322Z,102482.55
